Terminal Aerodrome Forecast
Issued by NWS

Home | Current Version | Previous Version | Text Only | Print | Product List | Glossary On
Versions: 1 2 3 4 5 6 7 8 9 10 11 12 13 14 15 16
000
FTUS41 KCAR 270017 AAA
TAFBHB
TAF AMD
KBHB 270017Z 2700/2724 VRB03KT P6SM VCSH BKN060
      TEMPO 2700/2701 6SM -SHRA OVC050
     FM270100 31004KT P6SM SCT060
     FM270800 VRB03KT 3SM BR SCT005
     FM271100 28006KT P6SM SCT060
     FM271800 21008KT P6SM SCT060=

USA.gov is the U.S. government's official web portal to all federal, state and local government web resources and services.